Kaleen Mc Allister — WDB3847 — position and weather

sailwx.info

Track history (hours):
 
Tides and Currents Weather Stations Pressure Air Temp Water Temp Dewpoint Dewpoint Depression Visibility Wind Speed Wind Dir Waves Ship Positions

Kaleen Mc Allister

Owner: MC ALLISTER TOWING & TRANSPORTATION INC, NEW YORK, NY. More information available from US FCC via Universal Licensing System and Coast Guard Vessel Documentation Center.

Last reported at 2016-Dec-06 11:33 UTC. Time now 2016-Dec-06 12:11 UTC.
Position N 39°13' W 076°32'.

Length 31 m; draft 4 m.

Type: Tug. MMSI: 366891960.

Date/timePositionNaut miles runAvg speedWind from/ knotsBaromVisibWave heightAir tempDewpointWater temp
2016-Dec-06 11:33N 39°13' W 076°32'3 3.2
2016-Dec-06 10:33N 39°15' W 076°35'2 1.6
2016-Dec-06 09:33N 39°14' W 076°33'2 2.3
2016-Dec-06 08:34N 39°16' W 076°35'0 0.0
2016-Dec-06 07:33N 39°16' W 076°35'0 0.0
2016-Dec-06 06:33N 39°16' W 076°35'0 0.0
2016-Dec-06 05:33N 39°16' W 076°35'0 0.0
2016-Dec-06 04:34N 39°16' W 076°35'1 0.6
2016-Dec-06 03:33N 39°16' W 076°34'3 2.9
2016-Dec-06 02:33N 39°13' W 076°35'0 0.0
2016-Dec-06 01:30N 39°13' W 076°35'2 2.4
2016-Dec-06 00:34N 39°13' W 076°32'1 1.2
2016-Dec-05 23:33N 39°14' W 076°32'1 1.0
2016-Dec-05 22:33N 39°15' W 076°33'2 2.0
2016-Dec-05 21:33N 39°13' W 076°32'4 3.7
2016-Dec-05 20:33N 39°16' W 076°35'0 0.0
2016-Dec-05 19:33N 39°16' W 076°35'0 0.0
2016-Dec-05 18:33N 39°16' W 076°35'1 1.2
2016-Dec-05 17:33N 39°15' W 076°35'1 1.2
2016-Dec-05 16:33N 39°16' W 076°35'0 0.0
2016-Dec-05 15:33N 39°16' W 076°35'0 0.0
2016-Dec-05 14:33N 39°16' W 076°35'0 0.0
2016-Dec-05 13:33N 39°16' W 076°35'0 0.0
2016-Dec-05 12:33N 39°16' W 076°35'0 0.0
2016-Dec-05 11:33N 39°16' W 076°35'0 0.0
2016-Dec-05 10:31N 39°16' W 076°35'0 0.0
2016-Dec-05 09:24N 39°16' W 076°35'3 3.6
2016-Dec-05 08:33N 39°14' W 076°32'1 1.3
2016-Dec-05 07:33N 39°13' W 076°32'4 3.3
2016-Dec-05 06:30N 39°16' W 076°35'0 0.0
2016-Dec-05 05:30N 39°16' W 076°35'0 0.0
2016-Dec-05 04:30N 39°16' W 076°35'0 0.0
2016-Dec-05 03:34N 39°16' W 076°35'0 0.0
2016-Dec-05 02:33N 39°16' W 076°35'1 1.2
2016-Dec-05 01:33N 39°15' W 076°35'1 1.0
2016-Dec-05 00:33N 39°15' W 076°33'2 1.8
2016-Dec-04 23:33N 39°16' W 076°35'0 0.0
2016-Dec-04 22:33N 39°16' W 076°35'0 0.0
2016-Dec-04 21:33N 39°16' W 076°35'0 0.0
2016-Dec-04 20:33N 39°16' W 076°35'0 0.0
2016-Dec-04 19:33N 39°16' W 076°35'0 0.0
2016-Dec-04 18:33N 39°16' W 076°35'0 0.0
2016-Dec-04 17:33N 39°16' W 076°35'0 0.0
2016-Dec-04 16:33N 39°16' W 076°35'0 0.0
2016-Dec-04 15:33N 39°16' W 076°35'0 0.0
2016-Dec-04 14:34N 39°16' W 076°35'1 0.9
2016-Dec-04 13:33N 39°15' W 076°34'1 0.8
2016-Dec-04 12:32N 39°16' W 076°33'0 0.5
2016-Dec-04 11:30N 39°15' W 076°33'1 0.2
2016-Dec-04 07:30N 39°15' W 076°32'0 0.0
2016-Dec-04 06:27N 39°15' W 076°32'1 0.8
2016-Dec-04 05:10N 39°14' W 076°33'1 0.9
2016-Dec-04 04:19N 39°15' W 076°33'2 1.0
2016-Dec-04 02:32N 39°16' W 076°35'0 0.0
2016-Dec-04 01:30N 39°16' W 076°35'1 0.8
2016-Dec-04 00:22N 39°17' W 076°36'0 0.3
2016-Dec-03 23:32N 39°17' W 076°36'0 0.1
2016-Dec-03 21:31N 39°17' W 076°36'0 0.0
2016-Dec-03 20:12N 39°17' W 076°36'0 0.0
2016-Dec-03 19:30N 39°17' W 076°36'1 0.9
2016-Dec-03 18:30N 39°16' W 076°35'0 0.0
2016-Dec-03 17:30N 39°16' W 076°35'0 0.0
2016-Dec-03 16:30N 39°16' W 076°35'0 0.0
2016-Dec-03 15:25N 39°16' W 076°35'0 0.0
2016-Dec-03 14:30N 39°16' W 076°35'0 0.0
2016-Dec-03 13:30N 39°16' W 076°35'0 0.2
2016-Dec-03 12:30N 39°16' W 076°35'4 3.7
2016-Dec-03 11:30N 39°13' W 076°32'3 2.7
2016-Dec-03 10:24N 39°15' W 076°34'1 1.0
2016-Dec-03 09:30N 39°15' W 076°34'0 0.3
2016-Dec-03 08:33N 39°14' W 076°34'1 1.4
2016-Dec-03 07:34N 39°16' W 076°34'1 0.6
2016-Dec-03 06:30N 39°16' W 076°35'0 0.0
2016-Dec-03 05:30N 39°16' W 076°35'2 2.3
2016-Dec-03 04:33N 39°15' W 076°32'0 0.0
2016-Dec-03 03:33N 39°15' W 076°32'1 0.5
2016-Dec-03 02:33N 39°15' W 076°32'0 0.2
2016-Dec-03 01:33N 39°15' W 076°32'2 1.9
2016-Dec-03 00:33N 39°15' W 076°35'2 2.0
2016-Dec-02 23:33N 39°14' W 076°33'3 2.8
2016-Dec-02 22:33N 39°16' W 076°35'0 0.1
2016-Dec-02 21:32N 39°16' W 076°35'0 0.1
2016-Dec-02 20:32N 39°16' W 076°35'0 0.0
2016-Dec-02 19:30N 39°16' W 076°35'1 1.0
2016-Dec-02 18:32N 39°15' W 076°34'0 0.4
2016-Dec-02 17:34N 39°15' W 076°34'1 0.8
2016-Dec-02 16:33N 39°15' W 076°33'2 1.9
2016-Dec-02 15:33N 39°13' W 076°32'4 3.9
2016-Dec-02 14:33N 39°16' W 076°35'0 0.0
2016-Dec-02 13:33N 39°16' W 076°35'0 0.0
2016-Dec-02 12:34N 39°16' W 076°35'0 0.0
2016-Dec-02 11:34N 39°16' W 076°35'0 0.0
2016-Dec-02 10:34N 39°16' W 076°35'0 0.0
2016-Dec-02 09:34N 39°16' W 076°35'0 0.0
2016-Dec-02 08:33N 39°16' W 076°35'0 0.0
2016-Dec-02 07:33N 39°16' W 076°35'0 0.0
2016-Dec-02 06:34N 39°16' W 076°35'0 0.0
2016-Dec-02 05:33N 39°16' W 076°35'0 0.0
2016-Dec-02 04:33N 39°16' W 076°35'0 0.0
2016-Dec-02 03:34N 39°16' W 076°35'0 0.0
2016-Dec-02 02:34N 39°16' W 076°35'0 0.0
2016-Dec-02 01:34N 39°16' W 076°35'0 0.0
2016-Dec-02 00:34N 39°16' W 076°35'0 0.0
2016-Dec-01 23:34N 39°16' W 076°35'0 0.0
2016-Dec-01 22:33N 39°16' W 076°35'2 1.8
2016-Dec-01 21:33N 39°15' W 076°33'2 1.8
2016-Dec-01 20:33N 39°16' W 076°35'0 0.0
2016-Dec-01 19:34N 39°16' W 076°35'0 0.0
2016-Dec-01 18:33N 39°16' W 076°35'0 0.0
2016-Dec-01 17:33N 39°16' W 076°35'0 0.0
2016-Dec-01 16:34N 39°16' W 076°35'0 0.0
2016-Dec-01 15:34N 39°16' W 076°35'0 0.0
2016-Dec-01 14:33N 39°16' W 076°35'1 0.7
2016-Dec-01 13:31N 39°16' W 076°34'1 1.4
2016-Dec-01 12:34N 39°14' W 076°33'2 2.1
2016-Dec-01 11:33N 39°16' W 076°35'0 0.0
2016-Dec-01 10:34N 39°16' W 076°35'0 0.0
2016-Dec-01 09:34N 39°16' W 076°35'0 0.0
2016-Dec-01 08:33N 39°16' W 076°35'0 0.0
2016-Dec-01 07:34N 39°16' W 076°35'0 0.0
2016-Dec-01 06:30N 39°16' W 076°35'0 0.0
2016-Dec-01 05:33N 39°16' W 076°35'0 0.0
2016-Dec-01 04:30N 39°16' W 076°35'0 0.0
2016-Dec-01 03:30N 39°16' W 076°35'0 0.0
2016-Dec-01 02:32N 39°16' W 076°35'0 0.0
2016-Dec-01 01:34N 39°16' W 076°35'0 0.0
2016-Dec-01 00:30N 39°16' W 076°35'0 0.0
2016-Nov-30 23:34N 39°16' W 076°35'0 0.0
2016-Nov-30 22:33N 39°16' W 076°35'3 2.9
2016-Nov-30 21:34N 39°14' W 076°32'1 1.3
2016-Nov-30 20:31N 39°15' W 076°34'1 0.5
2016-Nov-30 19:30N 39°15' W 076°33'0 0.0
2016-Nov-30 18:30N 39°15' W 076°33'0 0.0
2016-Nov-30 17:30N 39°15' W 076°33'1 0.5
2016-Nov-30 16:33N 39°14' W 076°33'2 1.7
2016-Nov-30 15:33N 39°16' W 076°34'0 0.4
2016-Nov-30 14:30N 39°16' W 076°35'0 0.0
2016-Nov-30 13:34N 39°16' W 076°35'0 0.0
2016-Nov-30 12:30N 39°16' W 076°35'0 0.0
2016-Nov-30 11:30N 39°16' W 076°35'0 0.0
2016-Nov-30 10:30N 39°16' W 076°35'0 0.0
2016-Nov-30 09:30N 39°16' W 076°35'0 0.0
2016-Nov-30 08:30N 39°16' W 076°35'0 0.0
2016-Nov-30 07:30N 39°16' W 076°35'0 0.0
2016-Nov-30 06:30N 39°16' W 076°35'0 0.0
2016-Nov-30 05:30N 39°16' W 076°35'0 0.0
2016-Nov-30 04:30N 39°16' W 076°35'0 0.0
2016-Nov-30 03:34N 39°16' W 076°35'0 0.0
2016-Nov-30 02:34N 39°16' W 076°35'0 0.0
2016-Nov-30 01:33N 39°16' W 076°35'0 0.0
2016-Nov-30 00:34N 39°16' W 076°35'0 0.0
2016-Nov-29 23:34N 39°16' W 076°35'0 0.0
2016-Nov-29 22:33N 39°16' W 076°35'0 0.0
2016-Nov-29 21:26N 39°16' W 076°35'0 0.0
2016-Nov-29 20:30N 39°16' W 076°35'0 0.0
2016-Nov-29 19:30N 39°16' W 076°35'0 0.0
2016-Nov-29 18:30N 39°16' W 076°35'0 0.0
2016-Nov-29 17:30N 39°16' W 076°35'0 0.0
2016-Nov-29 16:30N 39°16' W 076°35'0 0.0
2016-Nov-29 15:30N 39°16' W 076°35'0 0.1
2016-Nov-29 14:31N 39°16' W 076°35'0 0.1
2016-Nov-29 13:33N 39°16' W 076°35'0 0.0
2016-Nov-29 12:33N 39°16' W 076°35'0 0.0
2016-Nov-29 11:30N 39°16' W 076°35'2 2.7
2016-Nov-29 10:34N 39°15' W 076°32'2 2.4
2016-Nov-29 09:34N 39°16' W 076°35'0 0.2
2016-Nov-29 08:33N 39°16' W 076°35'0 0.0
2016-Nov-29 07:33N 39°16' W 076°35'0 0.0
2016-Nov-29 06:33N 39°16' W 076°35'0 0.0
2016-Nov-29 05:33N 39°16' W 076°35'0 0.0
2016-Nov-29 04:33N 39°16' W 076°35'0 0.0
2016-Nov-29 03:33N 39°16' W 076°35'0 0.0
2016-Nov-29 02:33N 39°16' W 076°35'0 0.0
2016-Nov-29 01:34N 39°16' W 076°35'0 0.0
2016-Nov-29 00:33N 39°16' W 076°35'0 0.0
2016-Nov-28 23:33N 39°16' W 076°35'0 0.0
2016-Nov-28 22:34N 39°16' W 076°35'0 0.0
2016-Nov-28 21:33N 39°16' W 076°35'0 0.0
2016-Nov-28 20:34N 39°16' W 076°35'0 0.0
2016-Nov-28 19:33N 39°16' W 076°35'0 0.0
2016-Nov-28 18:33N 39°16' W 076°35'0 0.0
2016-Nov-28 17:33N 39°16' W 076°35'0 0.0
2016-Nov-28 16:34N 39°16' W 076°35'0 0.0
2016-Nov-28 15:34N 39°16' W 076°35'0 0.0
2016-Nov-28 14:33N 39°16' W 076°35'1 0.5
2016-Nov-28 13:32N 39°16' W 076°35'4 4.0
2016-Nov-28 12:33N 39°13' W 076°32'1 1.0
2016-Nov-28 11:33N 39°14' W 076°32'0 0.0
2016-Nov-28 10:33N 39°14' W 076°32'1 1.2
2016-Nov-28 09:34N 39°15' W 076°33'2 1.8
2016-Nov-28 08:34N 39°16' W 076°35'0 0.0
2016-Nov-28 07:33N 39°16' W 076°35'0 0.0
2016-Nov-28 06:34N 39°16' W 076°35'0 0.0
2016-Nov-28 05:33N 39°16' W 076°35'0 0.0
2016-Nov-28 04:34N 39°16' W 076°35'0 0.0
2016-Nov-28 03:34N 39°16' W 076°35'0 0.0
2016-Nov-28 02:34N 39°16' W 076°35'0 0.0
2016-Nov-28 01:33N 39°16' W 076°35'0 0.0
2016-Nov-28 00:34N 39°16' W 076°35'0 0.0
2016-Nov-27 23:34N 39°16' W 076°35'0 0.0
2016-Nov-27 22:34N 39°16' W 076°35'0 0.0
2016-Nov-27 21:33N 39°16' W 076°35'0 0.0
2016-Nov-27 20:33N 39°16' W 076°35'0 0.0
2016-Nov-27 19:34N 39°16' W 076°35'0 0.0
2016-Nov-27 18:34N 39°16' W 076°35'0 0.0
2016-Nov-27 17:33N 39°16' W 076°35'0 0.0
2016-Nov-27 16:34N 39°16' W 076°35'0 0.0
2016-Nov-27 15:34N 39°16' W 076°35'0 0.0
2016-Nov-27 14:34N 39°16' W 076°35'0 0.0
2016-Nov-27 13:34N 39°16' W 076°35'0 0.0
2016-Nov-27 12:34N 39°16' W 076°35'1 1.0
2016-Nov-27 11:33N 39°15' W 076°34'0 0.1
2016-Nov-27 10:34N 39°15' W 076°34'1 0.8
2016-Nov-27 09:34N 39°16' W 076°35'0 0.0
2016-Nov-27 08:34N 39°16' W 076°35'0 0.0
2016-Nov-27 07:34N 39°16' W 076°35'0 0.0
2016-Nov-27 06:33N 39°16' W 076°35'0 0.0
2016-Nov-27 05:33N 39°16' W 076°35'0 0.0
2016-Nov-27 04:33N 39°16' W 076°35'0 0.0
2016-Nov-27 03:33N 39°16' W 076°35'0 0.0
2016-Nov-27 02:34N 39°16' W 076°35'0 0.0
2016-Nov-27 01:34N 39°16' W 076°35'0 0.0
2016-Nov-27 00:33N 39°16' W 076°35'0 0.0
2016-Nov-26 23:34N 39°16' W 076°35'0 0.0
2016-Nov-26 22:33N 39°16' W 076°35'2 2.2
2016-Nov-26 21:33N 39°15' W 076°32'2 1.6
2016-Nov-26 20:34N 39°16' W 076°34'1 0.7
2016-Nov-26 19:33N 39°16' W 076°35'0 0.0
2016-Nov-26 18:34N 39°16' W 076°35'0 0.0
2016-Nov-26 17:33N 39°16' W 076°35'0 0.0
2016-Nov-26 16:33N 39°16' W 076°35'0 0.0
2016-Nov-26 15:34N 39°16' W 076°35'0 0.0
2016-Nov-26 14:34N 39°16' W 076°35'0 0.0
2016-Nov-26 13:34N 39°16' W 076°35'0 0.0
2016-Nov-26 12:34N 39°16' W 076°35'0 0.0
2016-Nov-26 11:34N 39°16' W 076°35'  
Track history (hours):
 
Tides and Currents Weather Stations Pressure Air Temp Water Temp Dewpoint Dewpoint Depression Visibility Wind Speed Wind Dir Waves Ship Positions

Kaleen Mc Allister

Owner: MC ALLISTER TOWING & TRANSPORTATION INC, NEW YORK, NY. More information available from US FCC via Universal Licensing System and Coast Guard Vessel Documentation Center.

Last reported at 2016-Dec-06 11:33 UTC. Time now 2016-Dec-06 12:11 UTC.
Position N 39°13' W 076°32'.

Length 31 m; draft 4 m.

Type: Tug. MMSI: 366891960.

Date/timePositionNaut miles runAvg speedWind from/ knotsBaromVisibWave heightAir tempDewpointWater temp
2016-Dec-06 11:33N 39°13' W 076°32'3 3.2
2016-Dec-06 10:33N 39°15' W 076°35'2 1.6
2016-Dec-06 09:33N 39°14' W 076°33'2 2.3
2016-Dec-06 08:34N 39°16' W 076°35'0 0.0
2016-Dec-06 07:33N 39°16' W 076°35'0 0.0
2016-Dec-06 06:33N 39°16' W 076°35'0 0.0
2016-Dec-06 05:33N 39°16' W 076°35'0 0.0
2016-Dec-06 04:34N 39°16' W 076°35'1 0.6
2016-Dec-06 03:33N 39°16' W 076°34'3 2.9
2016-Dec-06 02:33N 39°13' W 076°35'0 0.0
2016-Dec-06 01:30N 39°13' W 076°35'2 2.4
2016-Dec-06 00:34N 39°13' W 076°32'1 1.2
2016-Dec-05 23:33N 39°14' W 076°32'1 1.0
2016-Dec-05 22:33N 39°15' W 076°33'2 2.0
2016-Dec-05 21:33N 39°13' W 076°32'4 3.7
2016-Dec-05 20:33N 39°16' W 076°35'0 0.0
2016-Dec-05 19:33N 39°16' W 076°35'0 0.0
2016-Dec-05 18:33N 39°16' W 076°35'1 1.2
2016-Dec-05 17:33N 39°15' W 076°35'1 1.2
2016-Dec-05 16:33N 39°16' W 076°35'0 0.0
2016-Dec-05 15:33N 39°16' W 076°35'0 0.0
2016-Dec-05 14:33N 39°16' W 076°35'0 0.0
2016-Dec-05 13:33N 39°16' W 076°35'0 0.0
2016-Dec-05 12:33N 39°16' W 076°35'0 0.0
2016-Dec-05 11:33N 39°16' W 076°35'0 0.0
2016-Dec-05 10:31N 39°16' W 076°35'0 0.0
2016-Dec-05 09:24N 39°16' W 076°35'3 3.6
2016-Dec-05 08:33N 39°14' W 076°32'1 1.3
2016-Dec-05 07:33N 39°13' W 076°32'4 3.3
2016-Dec-05 06:30N 39°16' W 076°35'0 0.0
2016-Dec-05 05:30N 39°16' W 076°35'0 0.0
2016-Dec-05 04:30N 39°16' W 076°35'0 0.0
2016-Dec-05 03:34N 39°16' W 076°35'0 0.0
2016-Dec-05 02:33N 39°16' W 076°35'1 1.2
2016-Dec-05 01:33N 39°15' W 076°35'1 1.0
2016-Dec-05 00:33N 39°15' W 076°33'2 1.8
2016-Dec-04 23:33N 39°16' W 076°35'0 0.0
2016-Dec-04 22:33N 39°16' W 076°35'0 0.0
2016-Dec-04 21:33N 39°16' W 076°35'0 0.0
2016-Dec-04 20:33N 39°16' W 076°35'0 0.0
2016-Dec-04 19:33N 39°16' W 076°35'0 0.0
2016-Dec-04 18:33N 39°16' W 076°35'0 0.0
2016-Dec-04 17:33N 39°16' W 076°35'0 0.0
2016-Dec-04 16:33N 39°16' W 076°35'0 0.0
2016-Dec-04 15:33N 39°16' W 076°35'0 0.0
2016-Dec-04 14:34N 39°16' W 076°35'1 0.9
2016-Dec-04 13:33N 39°15' W 076°34'1 0.8
2016-Dec-04 12:32N 39°16' W 076°33'0 0.5
2016-Dec-04 11:30N 39°15' W 076°33'1 0.2
2016-Dec-04 07:30N 39°15' W 076°32'0 0.0
2016-Dec-04 06:27N 39°15' W 076°32'1 0.8
2016-Dec-04 05:10N 39°14' W 076°33'1 0.9
2016-Dec-04 04:19N 39°15' W 076°33'2 1.0
2016-Dec-04 02:32N 39°16' W 076°35'0 0.0
2016-Dec-04 01:30N 39°16' W 076°35'1 0.8
2016-Dec-04 00:22N 39°17' W 076°36'0 0.3
2016-Dec-03 23:32N 39°17' W 076°36'0 0.1
2016-Dec-03 21:31N 39°17' W 076°36'0 0.0
2016-Dec-03 20:12N 39°17' W 076°36'0 0.0
2016-Dec-03 19:30N 39°17' W 076°36'1 0.9
2016-Dec-03 18:30N 39°16' W 076°35'0 0.0
2016-Dec-03 17:30N 39°16' W 076°35'0 0.0
2016-Dec-03 16:30N 39°16' W 076°35'0 0.0
2016-Dec-03 15:25N 39°16' W 076°35'0 0.0
2016-Dec-03 14:30N 39°16' W 076°35'0 0.0
2016-Dec-03 13:30N 39°16' W 076°35'0 0.2
2016-Dec-03 12:30N 39°16' W 076°35'4 3.7
2016-Dec-03 11:30N 39°13' W 076°32'3 2.7
2016-Dec-03 10:24N 39°15' W 076°34'1 1.0
2016-Dec-03 09:30N 39°15' W 076°34'0 0.3
2016-Dec-03 08:33N 39°14' W 076°34'1 1.4
2016-Dec-03 07:34N 39°16' W 076°34'1 0.6
2016-Dec-03 06:30N 39°16' W 076°35'0 0.0
2016-Dec-03 05:30N 39°16' W 076°35'2 2.3
2016-Dec-03 04:33N 39°15' W 076°32'0 0.0
2016-Dec-03 03:33N 39°15' W 076°32'1 0.5
2016-Dec-03 02:33N 39°15' W 076°32'0 0.2
2016-Dec-03 01:33N 39°15' W 076°32'2 1.9
2016-Dec-03 00:33N 39°15' W 076°35'2 2.0
2016-Dec-02 23:33N 39°14' W 076°33'3 2.8
2016-Dec-02 22:33N 39°16' W 076°35'0 0.1
2016-Dec-02 21:32N 39°16' W 076°35'0 0.1
2016-Dec-02 20:32N 39°16' W 076°35'0 0.0
2016-Dec-02 19:30N 39°16' W 076°35'1 1.0
2016-Dec-02 18:32N 39°15' W 076°34'0 0.4
2016-Dec-02 17:34N 39°15' W 076°34'1 0.8
2016-Dec-02 16:33N 39°15' W 076°33'2 1.9
2016-Dec-02 15:33N 39°13' W 076°32'4 3.9
2016-Dec-02 14:33N 39°16' W 076°35'0 0.0
2016-Dec-02 13:33N 39°16' W 076°35'0 0.0
2016-Dec-02 12:34N 39°16' W 076°35'0 0.0
2016-Dec-02 11:34N 39°16' W 076°35'0 0.0
2016-Dec-02 10:34N 39°16' W 076°35'0 0.0
2016-Dec-02 09:34N 39°16' W 076°35'0 0.0
2016-Dec-02 08:33N 39°16' W 076°35'0 0.0
2016-Dec-02 07:33N 39°16' W 076°35'0 0.0
2016-Dec-02 06:34N 39°16' W 076°35'0 0.0
2016-Dec-02 05:33N 39°16' W 076°35'0 0.0
2016-Dec-02 04:33N 39°16' W 076°35'0 0.0
2016-Dec-02 03:34N 39°16' W 076°35'0 0.0
2016-Dec-02 02:34N 39°16' W 076°35'0 0.0
2016-Dec-02 01:34N 39°16' W 076°35'0 0.0
2016-Dec-02 00:34N 39°16' W 076°35'0 0.0
2016-Dec-01 23:34N 39°16' W 076°35'0 0.0
2016-Dec-01 22:33N 39°16' W 076°35'2 1.8
2016-Dec-01 21:33N 39°15' W 076°33'2 1.8
2016-Dec-01 20:33N 39°16' W 076°35'0 0.0
2016-Dec-01 19:34N 39°16' W 076°35'0 0.0
2016-Dec-01 18:33N 39°16' W 076°35'0 0.0
2016-Dec-01 17:33N 39°16' W 076°35'0 0.0
2016-Dec-01 16:34N 39°16' W 076°35'0 0.0
2016-Dec-01 15:34N 39°16' W 076°35'0 0.0
2016-Dec-01 14:33N 39°16' W 076°35'1 0.7
2016-Dec-01 13:31N 39°16' W 076°34'1 1.4
2016-Dec-01 12:34N 39°14' W 076°33'2 2.1
2016-Dec-01 11:33N 39°16' W 076°35'0 0.0
2016-Dec-01 10:34N 39°16' W 076°35'0 0.0
2016-Dec-01 09:34N 39°16' W 076°35'0 0.0
2016-Dec-01 08:33N 39°16' W 076°35'0 0.0
2016-Dec-01 07:34N 39°16' W 076°35'0 0.0
2016-Dec-01 06:30N 39°16' W 076°35'0 0.0
2016-Dec-01 05:33N 39°16' W 076°35'0 0.0
2016-Dec-01 04:30N 39°16' W 076°35'0 0.0
2016-Dec-01 03:30N 39°16' W 076°35'0 0.0
2016-Dec-01 02:32N 39°16' W 076°35'0 0.0
2016-Dec-01 01:34N 39°16' W 076°35'0 0.0
2016-Dec-01 00:30N 39°16' W 076°35'0 0.0
2016-Nov-30 23:34N 39°16' W 076°35'0 0.0
2016-Nov-30 22:33N 39°16' W 076°35'3 2.9
2016-Nov-30 21:34N 39°14' W 076°32'1 1.3
2016-Nov-30 20:31N 39°15' W 076°34'1 0.5
2016-Nov-30 19:30N 39°15' W 076°33'0 0.0
2016-Nov-30 18:30N 39°15' W 076°33'0 0.0
2016-Nov-30 17:30N 39°15' W 076°33'1 0.5
2016-Nov-30 16:33N 39°14' W 076°33'2 1.7
2016-Nov-30 15:33N 39°16' W 076°34'0 0.4
2016-Nov-30 14:30N 39°16' W 076°35'0 0.0
2016-Nov-30 13:34N 39°16' W 076°35'0 0.0
2016-Nov-30 12:30N 39°16' W 076°35'0 0.0
2016-Nov-30 11:30N 39°16' W 076°35'0 0.0
2016-Nov-30 10:30N 39°16' W 076°35'0 0.0
2016-Nov-30 09:30N 39°16' W 076°35'0 0.0
2016-Nov-30 08:30N 39°16' W 076°35'0 0.0
2016-Nov-30 07:30N 39°16' W 076°35'0 0.0
2016-Nov-30 06:30N 39°16' W 076°35'0 0.0
2016-Nov-30 05:30N 39°16' W 076°35'0 0.0
2016-Nov-30 04:30N 39°16' W 076°35'0 0.0
2016-Nov-30 03:34N 39°16' W 076°35'0 0.0
2016-Nov-30 02:34N 39°16' W 076°35'0 0.0
2016-Nov-30 01:33N 39°16' W 076°35'0 0.0
2016-Nov-30 00:34N 39°16' W 076°35'0 0.0
2016-Nov-29 23:34N 39°16' W 076°35'0 0.0
2016-Nov-29 22:33N 39°16' W 076°35'0 0.0
2016-Nov-29 21:26N 39°16' W 076°35'0 0.0
2016-Nov-29 20:30N 39°16' W 076°35'0 0.0
2016-Nov-29 19:30N 39°16' W 076°35'0 0.0
2016-Nov-29 18:30N 39°16' W 076°35'0 0.0
2016-Nov-29 17:30N 39°16' W 076°35'0 0.0
2016-Nov-29 16:30N 39°16' W 076°35'0 0.0
2016-Nov-29 15:30N 39°16' W 076°35'0 0.1
2016-Nov-29 14:31N 39°16' W 076°35'0 0.1
2016-Nov-29 13:33N 39°16' W 076°35'0 0.0
2016-Nov-29 12:33N 39°16' W 076°35'0 0.0
2016-Nov-29 11:30N 39°16' W 076°35'2 2.7
2016-Nov-29 10:34N 39°15' W 076°32'2 2.4
2016-Nov-29 09:34N 39°16' W 076°35'0 0.2
2016-Nov-29 08:33N 39°16' W 076°35'0 0.0
2016-Nov-29 07:33N 39°16' W 076°35'0 0.0
2016-Nov-29 06:33N 39°16' W 076°35'0 0.0
2016-Nov-29 05:33N 39°16' W 076°35'0 0.0
2016-Nov-29 04:33N 39°16' W 076°35'0 0.0
2016-Nov-29 03:33N 39°16' W 076°35'0 0.0
2016-Nov-29 02:33N 39°16' W 076°35'0 0.0
2016-Nov-29 01:34N 39°16' W 076°35'0 0.0
2016-Nov-29 00:33N 39°16' W 076°35'0 0.0
2016-Nov-28 23:33N 39°16' W 076°35'0 0.0
2016-Nov-28 22:34N 39°16' W 076°35'0 0.0
2016-Nov-28 21:33N 39°16' W 076°35'0 0.0
2016-Nov-28 20:34N 39°16' W 076°35'0 0.0
2016-Nov-28 19:33N 39°16' W 076°35'0 0.0
2016-Nov-28 18:33N 39°16' W 076°35'0 0.0
2016-Nov-28 17:33N 39°16' W 076°35'0 0.0
2016-Nov-28 16:34N 39°16' W 076°35'0 0.0
2016-Nov-28 15:34N 39°16' W 076°35'0 0.0
2016-Nov-28 14:33N 39°16' W 076°35'1 0.5
2016-Nov-28 13:32N 39°16' W 076°35'4 4.0
2016-Nov-28 12:33N 39°13' W 076°32'1 1.0
2016-Nov-28 11:33N 39°14' W 076°32'0 0.0
2016-Nov-28 10:33N 39°14' W 076°32'1 1.2
2016-Nov-28 09:34N 39°15' W 076°33'2 1.8
2016-Nov-28 08:34N 39°16' W 076°35'0 0.0
2016-Nov-28 07:33N 39°16' W 076°35'0 0.0
2016-Nov-28 06:34N 39°16' W 076°35'0 0.0
2016-Nov-28 05:33N 39°16' W 076°35'0 0.0
2016-Nov-28 04:34N 39°16' W 076°35'0 0.0
2016-Nov-28 03:34N 39°16' W 076°35'0 0.0
2016-Nov-28 02:34N 39°16' W 076°35'0 0.0
2016-Nov-28 01:33N 39°16' W 076°35'0 0.0
2016-Nov-28 00:34N 39°16' W 076°35'0 0.0
2016-Nov-27 23:34N 39°16' W 076°35'0 0.0
2016-Nov-27 22:34N 39°16' W 076°35'0 0.0
2016-Nov-27 21:33N 39°16' W 076°35'0 0.0
2016-Nov-27 20:33N 39°16' W 076°35'0 0.0
2016-Nov-27 19:34N 39°16' W 076°35'0 0.0
2016-Nov-27 18:34N 39°16' W 076°35'0 0.0
2016-Nov-27 17:33N 39°16' W 076°35'0 0.0
2016-Nov-27 16:34N 39°16' W 076°35'0 0.0
2016-Nov-27 15:34N 39°16' W 076°35'0 0.0
2016-Nov-27 14:34N 39°16' W 076°35'0 0.0
2016-Nov-27 13:34N 39°16' W 076°35'0 0.0
2016-Nov-27 12:34N 39°16' W 076°35'1 1.0
2016-Nov-27 11:33N 39°15' W 076°34'0 0.1
2016-Nov-27 10:34N 39°15' W 076°34'1 0.8
2016-Nov-27 09:34N 39°16' W 076°35'0 0.0
2016-Nov-27 08:34N 39°16' W 076°35'0 0.0
2016-Nov-27 07:34N 39°16' W 076°35'0 0.0
2016-Nov-27 06:33N 39°16' W 076°35'0 0.0
2016-Nov-27 05:33N 39°16' W 076°35'0 0.0
2016-Nov-27 04:33N 39°16' W 076°35'0 0.0
2016-Nov-27 03:33N 39°16' W 076°35'0 0.0
2016-Nov-27 02:34N 39°16' W 076°35'0 0.0
2016-Nov-27 01:34N 39°16' W 076°35'0 0.0
2016-Nov-27 00:33N 39°16' W 076°35'0 0.0
2016-Nov-26 23:34N 39°16' W 076°35'0 0.0
2016-Nov-26 22:33N 39°16' W 076°35'2 2.2
2016-Nov-26 21:33N 39°15' W 076°32'2 1.6
2016-Nov-26 20:34N 39°16' W 076°34'1 0.7
2016-Nov-26 19:33N 39°16' W 076°35'0 0.0
2016-Nov-26 18:34N 39°16' W 076°35'0 0.0
2016-Nov-26 17:33N 39°16' W 076°35'0 0.0
2016-Nov-26 16:33N 39°16' W 076°35'0 0.0
2016-Nov-26 15:34N 39°16' W 076°35'0 0.0
2016-Nov-26 14:34N 39°16' W 076°35'0 0.0
2016-Nov-26 13:34N 39°16' W 076°35'0 0.0
2016-Nov-26 12:34N 39°16' W 076°35'0 0.0
2016-Nov-26 11:34N 39°16' W 076°35'  

Dump ship's entire track history